Saint Peter, MN (56082)

9:47 AM CST on February 08, 2016 (GMT -0600)
Gustavus Adolphus College | | Change Station
CLOSE
Current Station
Personal Weather Station
Location: Saint Peter, MN
Elevation: 928 ft
Nearby Weather Stations
Active Advisory: Winter Weather Advisory Active Notice: Local Storm Report

Elev 928 ft 44.32 °N, 93.97 °W | Updated 10 seconds ago

Overcast
Overcast
11.6 °F
Feels Like -6 °F
N
18.0
Wind Variable Wind from North
Gusts 38.0 mph

Today
High -- | Low -- °F
--% Chance of Precip.
Yesterday
High -- | Low -- °F
Precip. -- in
Pressure 29.98 in
Visibility 1.0 miles
Clouds Mostly Cloudy 1000 ft
Overcast 1500 ft
Windchill -6 °F
Dew Point 7 °F
Humidity 83%
Rainfall 0.00 in
Snow Depth Not available.
7:25 AM 5:34 PM
New Moon, 0% visible
METAR KULM 081534Z AUTO 33019G30KT 1SM -SN BKN010 OVC015 M12/M14 A2998 RMK AO2
Pressure 29.98 in
Visibility 1.0 miles
Clouds Mostly Cloudy 1000 ft
Overcast 1500 ft
Windchill -6 °F
Dew Point 7 °F
Humidity 83%
Rainfall 0.00 in
Snow Depth Not available.
7:25 AM 5:34 PM
New Moon, 0% visible
METAR KULM 081534Z AUTO 33019G30KT 1SM -SN BKN010 OVC015 M12/M14 A2998 RMK AO2

10-Day Weather Forecast

Almanac

Astronomy

Feb. 08, 2016 Rise Set
Actual Time
Civil Twilight
Nautical Twilight
Astronomical Twilight
Moon
Length of Visible Light
Length of Day
Tomorrow will be .
, % of the Moon is Illuminated

Today's Extremes

State Highs State Lows

Community

WunderPhotos

Upload Photos

1,891,440 photos uploaded!

WunderBlog® & News

Nearby

Air Quality

  Air Quality AQ Index Pollutant
Not available.

Snow Depth

Station Depth Elevation

Earthquake Activity

City Distance Mag. Time & Date
Minimum magnitude displayed is 2.5.

Coastal Water Temperatures

Place Temperature

Stations

Nearby Weather Stations

Station Location Temp. Windchill Dew Point Humidity Wind Precip. Elev Updated Type
                   

Watches & Warnings

Winter Weather Advisory
Issued: 9:19 AM CST Feb. 8, 2016 – National Weather Service

... Winter Weather Advisory remains in effect until noon CST
today...

* expect occasional light snow through noon.

* Additional snow accumulations of less than in inch expected.

* Winds gusting as high as 35 to 40 mph will cause areas of
blowing snow.

* Plan on reduced visibility at times and slippery Road
conditions.

Precautionary/preparedness actions...

A Winter Weather Advisory for snow means periods of snow will
cause primarily travel difficulties. Be prepared for snow covered
roads and limited visibilities... and use caution while driving.
The latest Road conditions for the state you are calling from can
be obtained by calling 5 1 1.



Jlt